Time;durP1;ratioP1;P1;durP2;ratioP2;P2;SDS_P1;SDS_P2;PMS_P1;PMS_P2;Temp;Humidity;BMP_temperature;BMP_pressure;BME280_temperature;BME280_humidity;BME280_pressure;Samples;Min_cycle;Max_cycle;Signal;HPM_P1;HPM_P2
2022/07/14 00:00:30;;;;;;;3.10;0.40;;;16.70;81.90;;;;;;4228299;28;20564;-70
2022/07/14 00:02:32;;;;;;;2.05;0.68;;;16.70;82.00;;;;;;4226263;28;20104;-71
2022/07/14 00:04:33;;;;;;;1.00;0.50;;;16.70;82.20;;;;;;4224696;28;21811;-69
2022/07/14 00:06:34;;;;;;;2.05;0.50;;;16.60;82.30;;;;;;4216155;28;20047;-70
2022/07/14 00:08:35;;;;;;;1.48;0.50;;;16.60;82.30;;;;;;4214947;28;20077;-71
2022/07/14 00:10:37;;;;;;;0.60;0.30;;;16.70;82.40;;;;;;4215396;28;20144;-71
2022/07/14 00:12:38;;;;;;;2.10;0.50;;;16.70;82.40;;;;;;4215972;28;20478;-70
2022/07/14 00:14:39;;;;;;;0.65;0.47;;;16.60;82.50;;;;;;4217154;28;20032;-70
2022/07/14 00:16:40;;;;;;;1.85;0.40;;;16.60;82.90;;;;;;4216738;28;20101;-70
2022/07/14 00:18:44;;;;;;;1.10;0.30;;;16.50;82.80;;;;;;4215496;28;20726;-70
2022/07/14 00:20:45;;;;;;;2.58;0.50;;;16.40;83.10;;;;;;4216023;28;20441;-70
2022/07/14 00:22:47;;;;;;;1.73;0.70;;;16.40;83.40;;;;;;4215604;28;20364;-70
2022/07/14 00:24:48;;;;;;;1.73;0.47;;;16.30;83.70;;;;;;4215302;28;20024;-71
2022/07/14 00:26:49;;;;;;;1.15;0.52;;;16.30;83.70;;;;;;4222725;28;20125;-71
2022/07/14 00:28:51;;;;;;;0.88;0.47;;;16.20;83.90;;;;;;4225272;28;20039;-70
2022/07/14 00:30:52;;;;;;;1.23;0.75;;;16.20;84.20;;;;;;4220754;28;20047;-70
2022/07/14 00:32:54;;;;;;;6.18;0.38;;;16.20;84.50;;;;;;4210717;28;20040;-70
2022/07/14 00:34:57;;;;;;;1.13;0.60;;;16.20;85.20;;;;;;4227294;28;20040;-70
2022/07/14 00:36:58;;;;;;;1.10;0.52;;;16.20;84.60;;;;;;4225479;28;20051;-70
2022/07/14 00:38:59;;;;;;;4.13;0.60;;;16.20;84.40;;;;;;4227445;28;20044;-70
2022/07/14 00:41:01;;;;;;;0.75;0.50;;;16.20;84.50;;;;;;4227483;28;20039;-70
2022/07/14 00:43:03;;;;;;;6.18;0.60;;;16.20;84.60;;;;;;4225698;28;20076;-70
2022/07/14 00:45:10;;;;;;;0.50;0.50;;;16.20;84.90;;;;;;4225496;27;20043;-71
2022/07/14 00:47:11;;;;;;;2.00;0.57;;;16.10;85.50;;;;;;4219483;28;20136;-70
2022/07/14 00:49:12;;;;;;;1.45;1.15;;;16.00;85.50;;;;;;4210505;28;20028;-71
2022/07/14 00:51:14;;;;;;;1.13;0.40;;;16.00;85.80;;;;;;4209127;28;20040;-70
2022/07/14 00:53:15;;;;;;;2.05;0.32;;;16.00;85.90;;;;;;4210785;28;20097;-70
2022/07/14 00:55:17;;;;;;;1.95;0.45;;;16.00;86.00;;;;;;4210610;28;20028;-71
2022/07/14 00:57:19;;;;;;;0.65;0.30;;;16.00;86.10;;;;;;4214781;28;20108;-70
2022/07/14 00:59:21;;;;;;;1.08;0.43;;;16.00;85.90;;;;;;4222467;28;20318;-71
2022/07/14 01:01:22;;;;;;;1.33;0.40;;;16.10;85.70;;;;;;4211418;28;20454;-71
2022/07/14 01:03:23;;;;;;;1.73;0.40;;;16.20;85.80;;;;;;4211517;28;20549;-70
2022/07/14 01:05:24;;;;;;;2.00;0.40;;;16.20;85.50;;;;;;4214741;28;20676;-70
2022/07/14 01:07:25;;;;;;;2.85;0.50;;;16.30;85.30;;;;;;4210022;28;20101;-71
2022/07/14 01:09:26;;;;;;;2.92;1.05;;;16.30;85.30;;;;;;4219761;28;20120;-69
2022/07/14 01:11:28;;;;;;;0.70;0.47;;;16.30;85.20;;;;;;4226079;28;20036;-71
2022/07/14 01:13:29;;;;;;;0.38;0.38;;;16.30;85.20;;;;;;4220731;28;20036;-70
2022/07/14 01:15:31;;;;;;;1.58;0.57;;;16.30;85.10;;;;;;4209887;28;20077;-70
2022/07/14 01:17:32;;;;;;;1.77;0.63;;;16.30;85.10;;;;;;4210761;28;20535;-71
2022/07/14 01:19:33;;;;;;;1.75;0.30;;;16.30;85.30;;;;;;4209329;28;20097;-71
2022/07/14 01:21:35;;;;;;;0.63;0.22;;;16.30;85.30;;;;;;4210359;28;20040;-72
2022/07/14 01:23:36;;;;;;;0.75;0.35;;;16.30;85.50;;;;;;4211027;28;20035;-72
2022/07/14 01:25:37;;;;;;;2.40;0.40;;;16.30;85.60;;;;;;4210408;28;20446;-71
2022/07/14 01:27:38;;;;;;;2.05;0.43;;;16.30;85.50;;;;;;4210915;28;20085;-72
2022/07/14 01:29:39;;;;;;;1.83;0.40;;;16.30;85.60;;;;;;4211097;28;20044;-71
2022/07/14 01:31:41;;;;;;;4.20;0.85;;;16.30;85.70;;;;;;4210944;28;20093;-75
2022/07/14 01:33:42;;;;;;;0.52;0.40;;;16.20;85.60;;;;;;4209973;28;20052;-70
2022/07/14 01:35:43;;;;;;;1.10;0.40;;;16.30;85.60;;;;;;4210655;28;20078;-73
2022/07/14 01:37:48;;;;;;;2.42;0.47;;;16.30;85.70;;;;;;4211169;28;20047;-70
2022/07/14 01:39:49;;;;;;;0.50;0.30;;;16.30;85.70;;;;;;4210045;28;20072;-71
2022/07/14 01:41:50;;;;;;;1.17;0.40;;;16.30;86.00;;;;;;4209892;28;21056;-72
2022/07/14 01:43:51;;;;;;;3.28;0.50;;;16.20;86.20;;;;;;4210576;28;20086;-70
2022/07/14 01:45:52;;;;;;;1.33;0.65;;;16.20;86.20;;;;;;4209760;28;20032;-72
2022/07/14 01:47:53;;;;;;;0.55;0.47;;;16.10;86.30;;;;;;4209801;28;20024;-73
2022/07/14 01:49:54;;;;;;;0.60;0.40;;;16.10;86.50;;;;;;4209623;28;20492;-73
2022/07/14 01:51:56;;;;;;;0.52;0.40;;;16.10;86.60;;;;;;4209965;28;20357;-71
2022/07/14 01:53:57;;;;;;;0.60;0.50;;;16.10;86.70;;;;;;4209602;28;20390;-71
2022/07/14 01:55:59;;;;;;;4.55;0.65;;;16.00;86.90;;;;;;4211610;28;20044;-74
2022/07/14 01:58:00;;;;;;;0.68;0.40;;;16.00;87.20;;;;;;4219768;28;20028;-71
2022/07/14 02:00:01;;;;;;;1.45;0.40;;;15.90;87.30;;;;;;4220906;28;20116;-70
2022/07/14 02:02:03;;;;;;;1.50;0.57;;;15.90;87.50;;;;;;4209915;28;20092;-73
2022/07/14 02:04:04;;;;;;;1.92;0.95;;;15.80;87.70;;;;;;4209723;28;20028;-73
2022/07/14 02:06:05;;;;;;;1.40;1.00;;;15.80;87.80;;;;;;4209734;28;20105;-71
2022/07/14 02:08:06;;;;;;;1.75;0.60;;;15.80;88.00;;;;;;4210594;28;20042;-72
2022/07/14 02:12:28;;;;;;;1.45;0.28;;;15.90;87.80;;;;;;4226510;28;20028;-71
2022/07/14 02:14:30;;;;;;;0.50;0.40;;;16.00;87.70;;;;;;4223795;28;20044;-73
2022/07/14 02:16:31;;;;;;;0.60;0.40;;;16.00;87.60;;;;;;4209694;28;20094;-71
2022/07/14 02:18:32;;;;;;;2.28;0.73;;;15.90;87.70;;;;;;4209589;28;20530;-73
2022/07/14 02:20:34;;;;;;;1.25;0.40;;;16.00;87.80;;;;;;4209380;28;20048;-73
2022/07/14 02:22:36;;;;;;;0.45;0.40;;;15.90;87.90;;;;;;4210585;28;20036;-70
2022/07/14 02:24:37;;;;;;;0.70;0.40;;;15.90;87.90;;;;;;4213235;28;20418;-71
2022/07/14 02:26:39;;;;;;;1.08;0.60;;;15.90;88.00;;;;;;4226702;28;20065;-70
2022/07/14 02:28:41;;;;;;;1.45;0.30;;;15.90;88.10;;;;;;4224472;28;20121;-74
2022/07/14 02:30:42;;;;;;;1.45;0.47;;;15.90;88.10;;;;;;4226120;28;20061;-71
2022/07/14 02:32:43;;;;;;;1.25;0.68;;;15.90;88.30;;;;;;4226251;28;20565;-73
2022/07/14 02:34:44;;;;;;;1.55;0.60;;;15.80;88.70;;;;;;4225829;28;20073;-71
2022/07/14 02:36:47;;;;;;;1.55;0.68;;;15.80;88.80;;;;;;4226061;28;20152;-72
2022/07/14 02:38:48;;;;;;;2.63;0.63;;;15.70;89.10;;;;;;4225963;28;20085;-74
2022/07/14 02:40:49;;;;;;;1.75;0.50;;;15.70;89.10;;;;;;4224346;28;20077;-71
2022/07/14 02:42:50;;;;;;;2.05;0.60;;;15.70;89.50;;;;;;4224352;28;20080;-72
2022/07/14 02:44:51;;;;;;;3.25;0.90;;;15.60;89.30;;;;;;4226301;28;20036;-71
2022/07/14 02:46:52;;;;;;;1.90;0.45;;;15.60;89.60;;;;;;4221808;28;20036;-73
2022/07/14 02:48:54;;;;;;;1.77;0.70;;;15.70;89.60;;;;;;4209184;28;20476;-72
2022/07/14 02:51:04;;;;;;;2.63;0.50;;;15.60;89.70;;;;;;4210189;28;20089;-73
2022/07/14 02:53:06;;;;;;;1.63;0.50;;;15.70;90.00;;;;;;4212164;28;20044;-73
2022/07/14 02:55:07;;;;;;;1.42;0.47;;;15.60;90.00;;;;;;4213530;28;20040;-72
2022/07/14 02:57:08;;;;;;;3.17;0.98;;;15.70;90.00;;;;;;4212772;28;20077;-70
2022/07/14 02:59:09;;;;;;;3.70;1.40;;;15.70;89.80;;;;;;4213306;28;20253;-72
2022/07/14 03:01:11;;;;;;;1.45;1.00;;;15.70;90.00;;;;;;4213201;28;20513;-72
2022/07/14 03:03:12;;;;;;;1.85;0.70;;;15.70;90.00;;;;;;4211895;28;20075;-71
2022/07/14 03:05:14;;;;;;;1.23;0.45;;;15.80;90.00;;;;;;4212703;28;20028;-72
2022/07/14 03:07:15;;;;;;;1.30;0.38;;;15.80;90.00;;;;;;4211876;28;20052;-74
2022/07/14 03:09:17;;;;;;;3.08;0.45;;;15.90;90.00;;;;;;4212240;28;20914;-71
2022/07/14 03:11:18;;;;;;;1.42;0.40;;;16.00;89.90;;;;;;4212245;28;20422;-71
2022/07/14 03:13:19;;;;;;;2.25;0.70;;;16.00;89.70;;;;;;4216297;28;20043;-73
2022/07/14 03:15:20;;;;;;;2.50;0.50;;;16.00;89.70;;;;;;4228779;28;20360;-72
2022/07/14 03:17:22;;;;;;;0.50;0.40;;;16.00;89.70;;;;;;4228531;28;20060;-71
2022/07/14 03:19:23;;;;;;;0.77;0.45;;;16.10;89.70;;;;;;4225784;28;20031;-73
2022/07/14 03:21:24;;;;;;;2.83;0.40;;;16.10;89.60;;;;;;4216158;28;20089;-72
2022/07/14 03:23:25;;;;;;;0.95;0.40;;;16.10;89.50;;;;;;4211570;28;20511;-73
2022/07/14 03:25:26;;;;;;;4.40;3.03;;;16.20;89.60;;;;;;4211242;28;20092;-71
2022/07/14 03:27:27;;;;;;;2.25;0.80;;;16.20;89.40;;;;;;4213300;28;20089;-71
2022/07/14 03:29:28;;;;;;;5.00;2.58;;;16.30;89.40;;;;;;4227990;28;20027;-71
2022/07/14 03:31:30;;;;;;;2.28;0.50;;;16.30;89.40;;;;;;4226558;28;20457;-72
2022/07/14 03:33:31;;;;;;;2.15;0.40;;;16.30;89.30;;;;;;4228209;28;20031;-74
2022/07/14 03:35:32;;;;;;;1.88;0.50;;;16.40;89.20;;;;;;4228222;28;20032;-73
2022/07/14 03:37:34;;;;;;;2.05;0.38;;;16.50;89.20;;;;;;4228434;28;20092;-72
2022/07/14 03:39:36;;;;;;;1.27;0.38;;;17.00;88.40;;;;;;4224388;28;20047;-74
2022/07/14 03:41:37;;;;;;;5.00;0.73;;;17.60;87.30;;;;;;4212452;28;20027;-72
2022/07/14 03:43:39;;;;;;;1.17;0.47;;;18.20;86.30;;;;;;4211355;28;20024;-71
2022/07/14 03:45:40;;;;;;;1.20;0.43;;;18.50;85.20;;;;;;4212252;28;20081;-73
2022/07/14 03:47:42;;;;;;;2.97;0.50;;;18.90;84.40;;;;;;4222170;28;20057;-71
2022/07/14 03:49:43;;;;;;;1.70;0.40;;;19.00;84.00;;;;;;4228102;28;20047;-72
2022/07/14 03:51:44;;;;;;;2.38;0.57;;;19.40;83.50;;;;;;4228221;28;20035;-72
2022/07/14 03:53:46;;;;;;;1.88;0.50;;;19.80;82.80;;;;;;4228329;27;20056;-73
2022/07/14 03:55:47;;;;;;;4.47;0.70;;;20.50;82.00;;;;;;4226305;28;21663;-74
2022/07/14 03:57:48;;;;;;;1.02;0.40;;;21.20;80.80;;;;;;4227940;28;20093;-74
2022/07/14 03:59:49;;;;;;;4.20;0.80;;;21.80;79.50;;;;;;4219406;28;20036;-72
2022/07/14 04:01:50;;;;;;;0.95;0.55;;;22.40;78.40;;;;;;4211634;28;20032;-76
2022/07/14 04:03:51;;;;;;;4.07;0.50;;;23.10;77.40;;;;;;4208926;28;20089;-72
2022/07/14 04:05:54;;;;;;;2.25;0.43;;;23.70;76.20;;;;;;4214048;28;20156;-74
2022/07/14 04:07:55;;;;;;;2.05;0.47;;;24.20;75.10;;;;;;4210219;28;20056;-72
2022/07/14 04:09:56;;;;;;;2.75;0.40;;;24.70;74.00;;;;;;4210637;28;20044;-74
2022/07/14 04:11:58;;;;;;;2.17;0.90;;;25.10;73.20;;;;;;4210823;28;20031;-74
2022/07/14 04:13:59;;;;;;;3.10;0.52;;;25.50;72.40;;;;;;4210551;28;20085;-75
2022/07/14 04:16:00;;;;;;;2.95;0.73;;;25.10;71.90;;;;;;4216602;28;20043;-73
2022/07/14 04:18:01;;;;;;;1.90;0.65;;;25.30;71.60;;;;;;4227244;28;20047;-72
2022/07/14 04:20:04;;;;;;;1.88;0.70;;;25.10;71.50;;;;;;4207039;28;20090;-74
2022/07/14 04:22:05;;;;;;;1.52;0.60;;;25.20;71.30;;;;;;4208982;28;20073;-73
2022/07/14 04:24:06;;;;;;;0.80;0.65;;;25.30;71.30;;;;;;4210984;28;20085;-74
2022/07/14 04:26:07;;;;;;;4.75;0.98;;;25.50;70.70;;;;;;4210602;28;20556;-76
2022/07/14 04:28:08;;;;;;;3.35;0.77;;;25.10;70.30;;;;;;4222117;28;20085;-71
2022/07/14 04:30:12;;;;;;;2.95;1.02;;;25.10;70.70;;;;;;4217969;28;20111;-75
2022/07/14 04:32:13;;;;;;;4.72;0.80;;;24.90;70.80;;;;;;4209397;28;20461;-70
2022/07/14 04:34:14;;;;;;;1.50;0.80;;;25.30;70.60;;;;;;4211232;28;20016;-72
2022/07/14 04:36:16;;;;;;;3.38;0.75;;;25.90;70.00;;;;;;4209940;28;20097;-70
2022/07/14 04:38:17;;;;;;;1.92;0.90;;;26.50;69.20;;;;;;4210716;28;20105;-71
2022/07/14 04:40:18;;;;;;;2.67;0.85;;;26.40;68.30;;;;;;4215362;28;20380;-71
2022/07/14 04:42:20;;;;;;;2.45;0.52;;;26.00;68.60;;;;;;4227317;28;20024;-70
2022/07/14 04:44:21;;;;;;;3.47;0.95;;;25.70;68.70;;;;;;4227133;28;20100;-69
2022/07/14 04:46:22;;;;;;;4.95;0.75;;;25.70;68.80;;;;;;4226808;28;20035;-75
2022/07/14 04:48:24;;;;;;;4.65;1.55;;;25.90;68.80;;;;;;4227167;28;20467;-73
2022/07/14 04:52:47;;;;;;;1.77;0.68;;;25.90;68.40;;;;;;4210406;28;20032;-72
2022/07/14 04:54:48;;;;;;;3.33;0.95;;;26.40;68.10;;;;;;4215921;28;20035;-68
2022/07/14 04:56:49;;;;;;;1.88;0.63;;;27.00;67.60;;;;;;4221305;28;20105;-69
2022/07/14 04:58:50;;;;;;;1.10;0.50;;;27.30;67.00;;;;;;4209663;28;20093;-73
2022/07/14 05:00:57;;;;;;;6.07;0.70;;;27.60;66.70;;;;;;4210136;28;20044;-70
2022/07/14 05:02:58;;;;;;;2.20;0.60;;;28.10;66.20;;;;;;4209700;28;20437;-71
2022/07/14 05:04:59;;;;;;;1.58;0.47;;;29.20;65.40;;;;;;4209821;28;20085;-72
2022/07/14 05:07:01;;;;;;;3.38;0.90;;;30.10;64.30;;;;;;4209906;28;20113;-71
2022/07/14 05:09:02;;;;;;;2.83;1.40;;;30.50;63.40;;;;;;4209825;28;20024;-70
2022/07/14 05:11:04;;;;;;;2.65;0.90;;;30.60;62.60;;;;;;4209809;28;20082;-71
2022/07/14 05:13:05;;;;;;;0.80;0.45;;;30.30;62.20;;;;;;4209356;28;20062;-71
2022/07/14 05:15:07;;;;;;;2.58;0.65;;;30.20;62.50;;;;;;4209857;28;20112;-71
2022/07/14 05:17:08;;;;;;;4.05;0.60;;;29.30;62.90;;;;;;4209331;28;20051;-71
2022/07/14 05:19:09;;;;;;;3.45;0.50;;;28.00;63.90;;;;;;4209732;28;20039;-71
2022/07/14 05:21:11;;;;;;;4.95;0.80;;;26.90;65.30;;;;;;4210093;28;20089;-70
2022/07/14 05:23:12;;;;;;;2.22;0.93;;;26.40;66.20;;;;;;4209491;28;20410;-71
2022/07/14 05:25:14;;;;;;;1.80;0.73;;;26.80;66.40;;;;;;4209688;28;20020;-73
2022/07/14 05:27:15;;;;;;;6.05;0.98;;;26.90;66.10;;;;;;4210093;28;20040;-74
2022/07/14 05:29:17;;;;;;;0.98;0.50;;;26.40;66.30;;;;;;4209756;28;20049;-74
2022/07/14 05:31:18;;;;;;;5.38;0.63;;;26.50;66.70;;;;;;4209348;28;20055;-74
2022/07/14 05:33:20;;;;;;;3.00;0.77;;;26.90;66.40;;;;;;4209323;28;20027;-70
2022/07/14 05:35:21;;;;;;;5.53;0.80;;;27.00;66.20;;;;;;4209637;28;20509;-70
2022/07/14 05:37:22;;;;;;;4.57;0.60;;;27.30;66.00;;;;;;4209485;28;20464;-70
2022/07/14 05:39:23;;;;;;;3.53;0.75;;;28.00;65.60;;;;;;4209527;28;20473;-70
2022/07/14 05:41:24;;;;;;;1.67;0.43;;;28.70;64.90;;;;;;4209642;28;20024;-72
2022/07/14 05:43:26;;;;;;;3.35;0.50;;;28.90;64.10;;;;;;4209801;28;20036;-73
2022/07/14 05:45:28;;;;;;;3.53;0.80;;;28.80;64.40;;;;;;4209577;28;20040;-70
2022/07/14 05:47:29;;;;;;;1.63;0.90;;;28.90;64.20;;;;;;4209486;28;20020;-71
2022/07/14 05:49:30;;;;;;;3.17;1.02;;;29.40;64.10;;;;;;4209325;28;20117;-69
2022/07/14 05:51:31;;;;;;;2.92;0.85;;;29.40;63.80;;;;;;4210084;28;20032;-72
2022/07/14 05:53:33;;;;;;;3.17;0.77;;;29.60;63.80;;;;;;4209489;28;20024;-70
2022/07/14 05:55:34;;;;;;;2.67;0.65;;;30.30;63.50;;;;;;4213012;28;20086;-68
2022/07/14 05:57:35;;;;;;;8.65;0.70;;;31.10;62.70;;;;;;4214541;28;20055;-70
2022/07/14 05:59:36;;;;;;;7.72;1.00;;;31.60;62.00;;;;;;4206628;28;20020;-66
2022/07/14 06:01:37;;;;;;;1.42;0.60;;;31.90;61.70;;;;;;4208108;28;20467;-70
2022/07/14 06:03:39;;;;;;;1.23;0.50;;;31.90;61.30;;;;;;4209118;28;20106;-70
2022/07/14 06:05:40;;;;;;;8.60;1.02;;;32.10;61.20;;;;;;4208838;28;20024;-69
2022/07/14 06:07:41;;;;;;;5.38;0.80;;;32.50;60.70;;;;;;4208798;28;20044;-69
2022/07/14 06:09:43;;;;;;;3.15;0.77;;;33.00;60.40;;;;;;4207516;28;20086;-67
2022/07/14 06:11:45;;;;;;;5.72;1.00;;;33.30;60.10;;;;;;4193316;28;20029;-67
2022/07/14 06:13:46;;;;;;;2.92;0.70;;;33.30;59.90;;;;;;4206817;28;20044;-66
2022/07/14 06:15:47;;;;;;;2.00;0.60;;;33.50;59.70;;;;;;4209204;28;20081;-68
2022/07/14 06:17:49;;;;;;;4.25;0.60;;;33.70;59.50;;;;;;4223773;28;20093;-68
2022/07/14 06:19:50;;;;;;;1.33;0.60;;;33.80;59.30;;;;;;4226317;28;20020;-68
2022/07/14 06:21:51;;;;;;;2.53;0.85;;;33.90;59.10;;;;;;4221859;28;20032;-66
2022/07/14 06:23:52;;;;;;;4.18;0.80;;;34.10;59.10;;;;;;4209200;28;20077;-67
2022/07/14 06:25:53;;;;;;;7.45;1.08;;;34.20;59.00;;;;;;4210073;28;20085;-66
2022/07/14 06:27:54;;;;;;;8.10;0.88;;;34.10;58.90;;;;;;4211731;28;20082;-68
2022/07/14 06:29:56;;;;;;;4.10;0.70;;;34.00;59.00;;;;;;4212243;28;20032;-66
2022/07/14 06:31:57;;;;;;;3.28;0.75;;;34.00;58.80;;;;;;4212496;28;20406;-70
2022/07/14 06:33:58;;;;;;;7.32;0.65;;;34.10;58.80;;;;;;4212375;28;20081;-68
2022/07/14 06:35:59;;;;;;;1.30;0.55;;;33.90;58.80;;;;;;4212101;28;20028;-72
2022/07/14 06:38:00;;;;;;;10.43;0.70;;;33.40;59.20;;;;;;4226033;28;20040;-65
2022/07/14 06:40:05;;;;;;;10.05;1.00;;;33.40;59.40;;;;;;4229085;27;20077;-68
2022/07/14 06:42:07;;;;;;;4.40;1.05;;;33.80;59.20;;;;;;4229383;28;20035;-67
2022/07/14 06:44:08;;;;;;;6.07;0.90;;;34.20;58.70;;;;;;4228580;28;20016;-67
2022/07/14 06:46:14;;;;;;;2.72;0.55;;;34.90;58.30;;;;;;4227223;28;20048;-64
2022/07/14 06:48:15;;;;;;;3.40;0.40;;;35.10;58.00;;;;;;4228813;28;20027;-66
2022/07/14 06:50:17;;;;;;;3.22;0.68;;;35.10;57.80;;;;;;4221683;28;20028;-67
2022/07/14 06:52:18;;;;;;;0.75;0.22;;;35.30;57.50;;;;;;4212707;28;20460;-68
2022/07/14 06:54:19;;;;;;;2.55;0.45;;;34.70;57.30;;;;;;4212387;28;20385;-68
2022/07/14 06:56:20;;;;;;;1.20;0.40;;;34.70;57.60;;;;;;4211862;28;20028;-70
2022/07/14 06:58:21;;;;;;;8.18;0.70;;;34.90;57.20;;;;;;4210458;28;20381;-69
2022/07/14 07:00:23;;;;;;;2.03;0.40;;;35.00;57.00;;;;;;4216545;28;20073;-71
2022/07/14 07:02:25;;;;;;;2.35;0.50;;;34.50;56.60;;;;;;4215778;28;20028;-67
2022/07/14 07:04:26;;;;;;;1.77;0.40;;;34.00;57.50;;;;;;4211808;28;20685;-66
2022/07/14 07:06:45;;;;;;;1.95;0.60;;;33.90;57.50;;;;;;4211856;28;20446;-68
2022/07/14 07:08:47;;;;;;;2.10;0.52;;;34.00;57.50;;;;;;4211812;28;20062;-72
2022/07/14 07:10:48;;;;;;;0.95;0.30;;;34.60;57.30;;;;;;4211618;28;20040;-69
2022/07/14 07:12:49;;;;;;;5.32;0.70;;;34.60;56.60;;;;;;4211553;28;20020;-69
2022/07/14 07:14:50;;;;;;;6.78;0.40;;;34.10;56.50;;;;;;4212047;28;20468;-68
2022/07/14 07:16:51;;;;;;;2.10;0.52;;;33.80;56.80;;;;;;4213043;28;20047;-67
2022/07/14 07:18:53;;;;;;;0.93;0.65;;;33.80;57.20;;;;;;4226736;28;20548;-68
2022/07/14 07:20:54;;;;;;;0.65;0.40;;;33.90;57.10;;;;;;4214813;28;20472;-67
2022/07/14 07:22:55;;;;;;;0.80;0.55;;;33.80;56.70;;;;;;4212151;28;20062;-68
2022/07/14 07:24:56;;;;;;;1.27;0.50;;;33.70;56.70;;;;;;4211055;28;20082;-66
2022/07/14 07:26:58;;;;;;;1.23;0.55;;;33.40;56.70;;;;;;4211289;28;20177;-69
2022/07/14 07:28:59;;;;;;;4.32;0.50;;;33.50;56.80;;;;;;4218854;28;20043;-70
2022/07/14 07:31:00;;;;;;;0.47;0.40;;;33.40;56.00;;;;;;4226599;28;20156;-70
2022/07/14 07:33:02;;;;;;;2.05;0.45;;;33.20;56.00;;;;;;4228153;28;20479;-69
2022/07/14 07:35:04;;;;;;;1.60;0.40;;;33.00;56.00;;;;;;4222651;28;20119;-69
2022/07/14 07:37:05;;;;;;;0.40;0.35;;;32.70;56.00;;;;;;4209490;28;20039;-67
2022/07/14 07:39:06;;;;;;;1.52;0.40;;;32.60;56.40;;;;;;4212574;28;21134;-70
2022/07/14 07:41:08;;;;;;;3.78;0.60;;;32.90;56.40;;;;;;4211147;28;20020;-68
2022/07/14 07:43:09;;;;;;;1.25;0.30;;;33.10;56.50;;;;;;4210305;28;20447;-68
2022/07/14 07:45:11;;;;;;;0.77;0.57;;;33.20;56.30;;;;;;4211354;28;20039;-69
2022/07/14 07:47:13;;;;;;;0.85;0.40;;;33.30;55.80;;;;;;4211068;28;20028;-70
2022/07/14 07:49:14;;;;;;;3.70;0.30;;;33.20;55.70;;;;;;4211685;28;20094;-71
2022/07/14 07:51:15;;;;;;;3.33;0.50;;;33.20;55.90;;;;;;4210607;28;20035;-69
2022/07/14 07:53:17;;;;;;;0.50;0.30;;;33.40;55.50;;;;;;4211138;28;20434;-68
2022/07/14 07:55:18;;;;;;;1.85;0.45;;;33.50;55.50;;;;;;4211507;28;20435;-69
2022/07/14 07:57:19;;;;;;;1.60;0.52;;;33.10;55.40;;;;;;4209337;28;20040;-68
2022/07/14 07:59:20;;;;;;;0.57;0.50;;;32.50;55.60;;;;;;4211123;28;20129;-69
2022/07/14 08:01:22;;;;;;;2.63;0.50;;;32.40;56.30;;;;;;4210058;28;20131;-68
2022/07/14 08:03:23;;;;;;;0.55;0.40;;;32.30;56.30;;;;;;4209962;28;20101;-69
2022/07/14 08:05:26;;;;;;;1.08;0.55;;;32.20;56.30;;;;;;4211037;28;20016;-69
2022/07/14 08:07:27;;;;;;;2.75;0.60;;;32.10;56.50;;;;;;4210259;28;20047;-69
2022/07/14 08:09:29;;;;;;;0.70;0.40;;;32.20;56.30;;;;;;4210495;28;20039;-68
2022/07/14 08:11:30;;;;;;;1.77;1.17;;;32.30;56.00;;;;;;4210059;28;20557;-68
2022/07/14 08:13:31;;;;;;;4.03;0.85;;;32.40;55.70;;;;;;4209102;28;20141;-71
2022/07/14 08:15:32;;;;;;;1.05;0.40;;;32.40;56.30;;;;;;4209566;28;20053;-68
2022/07/14 08:17:34;;;;;;;1.13;0.30;;;32.60;55.40;;;;;;4220549;28;20500;-68
2022/07/14 08:19:35;;;;;;;0.35;0.30;;;32.60;55.00;;;;;;4226536;28;20476;-71
2022/07/14 08:21:36;;;;;;;2.05;0.30;;;32.50;55.10;;;;;;4214561;28;20086;-70
2022/07/14 08:23:38;;;;;;;0.50;0.20;;;32.20;55.30;;;;;;4211335;28;20032;-69
2022/07/14 08:25:39;;;;;;;0.65;0.45;;;32.10;55.40;;;;;;4210661;28;20088;-71
2022/07/14 08:27:40;;;;;;;0.32;0.30;;;32.00;55.30;;;;;;4210088;28;20093;-68
2022/07/14 08:29:42;;;;;;;2.90;0.47;;;31.90;55.20;;;;;;4210080;28;20028;-69
2022/07/14 08:31:43;;;;;;;0.80;0.38;;;31.80;55.60;;;;;;4210121;28;20024;-67
2022/07/14 08:33:44;;;;;;;2.47;0.40;;;31.90;55.70;;;;;;4210477;28;20058;-69
2022/07/14 08:35:47;;;;;;;2.42;0.60;;;32.00;55.70;;;;;;4209352;28;20044;-71
2022/07/14 08:37:48;;;;;;;2.83;0.50;;;32.50;55.70;;;;;;4210135;28;20488;-69
2022/07/14 08:39:49;;;;;;;1.60;0.80;;;32.70;55.40;;;;;;4209922;28;20078;-68
2022/07/14 08:41:54;;;;;;;1.80;0.52;;;32.70;55.20;;;;;;4210822;28;20084;-67
2022/07/14 08:43:55;;;;;;;1.25;0.40;;;32.50;55.40;;;;;;4214083;28;20035;-66
2022/07/14 08:46:00;;;;;;;1.60;0.40;;;32.20;55.60;;;;;;4211716;28;20040;-69
2022/07/14 08:48:01;;;;;;;3.08;0.65;;;32.20;55.30;;;;;;4210219;28;20078;-67
2022/07/14 08:50:07;;;;;;;1.55;0.80;;;32.00;55.00;;;;;;4209637;28;20093;-69
2022/07/14 08:52:10;;;;;;;2.25;0.90;;;32.00;55.10;;;;;;4210589;28;20097;-68
2022/07/14 08:54:11;;;;;;;1.25;0.30;;;32.10;55.40;;;;;;4210612;28;20442;-69
2022/07/14 08:56:13;;;;;;;1.42;0.43;;;32.00;55.30;;;;;;4210301;28;20081;-70
2022/07/14 08:58:14;;;;;;;3.13;0.52;;;32.00;55.50;;;;;;4209749;28;20044;-71
2022/07/14 09:00:17;;;;;;;2.25;0.75;;;32.00;55.90;;;;;;4210029;28;20040;-68
2022/07/14 09:02:18;;;;;;;2.78;0.45;;;31.80;55.20;;;;;;4219315;28;20077;-68
2022/07/14 09:04:19;;;;;;;5.45;1.20;;;31.30;55.70;;;;;;4225152;28;20097;-68
2022/07/14 09:06:46;;;;;;;2.00;1.17;;;31.40;55.90;;;;;;4226709;28;20564;-68
2022/07/14 09:08:56;;;;;;;2.88;0.60;;;31.30;55.50;;;;;;4224449;28;20480;-69
2022/07/14 09:10:57;;;;;;;1.58;0.68;;;31.30;55.60;;;;;;4210330;28;20128;-69
2022/07/14 09:13:18;;;;;;;5.70;1.30;;;31.10;55.40;;;;;;4216860;28;20085;-67
2022/07/14 09:17:53;;;;;;;9.27;1.50;;;30.50;56.10;;;;;;4210484;28;20044;-68
2022/07/14 09:20:10;;;;;;;6.10;1.38;;;30.40;55.70;;;;;;4209952;28;20032;-70
2022/07/14 09:22:11;;;;;;;9.65;2.45;;;30.20;56.10;;;;;;4209997;28;20040;-70
2022/07/14 09:24:14;;;;;;;8.57;2.03;;;30.30;56.30;;;;;;4209864;28;20541;-68
2022/07/14 09:26:17;;;;;;;7.25;1.23;;;30.50;57.00;;;;;;4208949;28;20104;-67
2022/07/14 09:28:25;;;;;;;5.97;0.93;;;30.70;56.70;;;;;;4208717;28;20525;-69
2022/07/14 09:30:26;;;;;;;2.17;0.70;;;31.10;55.60;;;;;;4208858;28;20028;-68
2022/07/14 09:32:52;;;;;;;11.15;1.50;;;31.30;56.00;;;;;;4209283;28;20061;-70
2022/07/14 09:35:00;;;;;;;5.85;0.47;;;31.50;56.10;;;;;;4209515;28;20056;-68
2022/07/14 09:37:17;;;;;;;2.67;0.70;;;31.70;56.00;;;;;;4209537;28;20044;-69
2022/07/14 09:39:20;;;;;;;1.48;0.50;;;31.80;54.70;;;;;;4203518;28;20081;-68
2022/07/14 09:41:21;;;;;;;4.53;0.70;;;31.90;55.50;;;;;;4209367;28;20032;-67
2022/07/14 09:43:22;;;;;;;3.88;0.60;;;32.00;55.40;;;;;;4209607;28;20089;-71
2022/07/14 09:45:34;;;;;;;0.45;0.35;;;31.90;55.40;;;;;;4209429;28;20074;-73
2022/07/14 09:48:04;;;;;;;3.22;0.30;;;31.90;54.90;;;;;;4209503;28;20330;-71
2022/07/14 09:50:05;;;;;;;0.32;0.32;;;32.00;54.00;;;;;;4209740;28;20016;-69
2022/07/14 09:52:06;;;;;;;1.38;0.47;;;31.90;55.00;;;;;;4212340;28;20036;-64
2022/07/14 09:54:08;;;;;;;1.30;0.60;;;32.00;54.80;;;;;;4209720;28;20040;-67
2022/07/14 09:56:10;;;;;;;0.90;0.35;;;31.90;54.80;;;;;;4209259;28;20450;-68
2022/07/14 09:58:11;;;;;;;1.48;0.30;;;31.70;54.70;;;;;;4208215;28;20065;-70
2022/07/14 10:00:18;;;;;;;1.25;0.40;;;31.60;54.90;;;;;;4217894;28;20023;-68
2022/07/14 10:02:30;;;;;;;1.08;0.90;;;31.50;54.60;;;;;;4229703;28;20020;-72
2022/07/14 10:04:31;;;;;;;2.45;0.45;;;31.40;54.70;;;;;;4228484;27;20031;-72
2022/07/14 10:06:32;;;;;;;2.60;1.15;;;31.40;55.30;;;;;;4212674;28;20060;-68
2022/07/14 10:08:40;;;;;;;1.50;0.30;;;31.30;55.40;;;;;;4212946;28;20770;-68
2022/07/14 10:10:41;;;;;;;0.98;0.50;;;31.40;54.60;;;;;;4212910;28;20118;-69
2022/07/14 10:12:43;;;;;;;3.38;0.70;;;31.20;54.80;;;;;;4213323;28;20778;-66
2022/07/14 10:14:44;;;;;;;2.78;0.43;;;31.10;55.00;;;;;;4212900;28;20484;-66
2022/07/14 10:16:46;;;;;;;1.38;0.40;;;30.80;54.90;;;;;;4226353;28;20039;-67
2022/07/14 10:18:47;;;;;;;1.05;0.40;;;30.90;55.10;;;;;;4229296;28;20036;-68
2022/07/14 10:20:51;;;;;;;1.17;0.47;;;31.00;55.10;;;;;;4229327;28;20073;-68
2022/07/14 10:22:55;;;;;;;1.77;0.63;;;31.10;55.20;;;;;;4229335;28;20833;-68
2022/07/14 10:24:57;;;;;;;1.33;0.20;;;31.10;54.90;;;;;;4198824;28;20082;-66
2022/07/14 10:26:59;;;;;;;7.18;0.52;;;30.50;54.30;;;;;;4227264;28;20027;-67
2022/07/14 10:29:04;;;;;;;3.72;0.55;;;30.00;55.00;;;;;;4229447;28;20368;-72
2022/07/14 10:31:15;;;;;;;3.40;0.38;;;29.80;55.30;;;;;;4228730;28;20051;-70
2022/07/14 10:33:26;;;;;;;0.40;0.30;;;29.80;55.40;;;;;;4226626;27;20101;-71
2022/07/14 10:35:42;;;;;;;1.98;0.40;;;29.70;55.70;;;;;;4211852;28;20020;-73
2022/07/14 10:38:05;;;;;;;2.25;0.40;;;29.50;55.40;;;;;;4211660;28;20040;-68
2022/07/14 10:40:06;;;;;;;1.85;0.40;;;29.50;55.50;;;;;;4211181;28;20545;-71
2022/07/14 10:42:41;;;;;;;0.70;0.20;;;29.50;55.70;;;;;;4212095;28;20032;-70